createdAt,value
2019-03-10T00:01:49.467Z,99.90
2019-03-10T00:04:19.320Z,99.90
2019-03-10T00:06:49.288Z,99.90
2019-03-10T00:09:19.294Z,99.90
2019-03-10T00:11:49.191Z,99.90
2019-03-10T00:14:19.059Z,99.90
2019-03-10T00:16:49.095Z,99.90
2019-03-10T00:19:19.095Z,99.90
2019-03-10T00:21:49.051Z,99.90
2019-03-10T00:24:18.916Z,99.90
2019-03-10T00:26:48.880Z,99.90
2019-03-10T00:29:18.795Z,99.90
2019-03-10T00:31:48.705Z,99.90
2019-03-10T00:34:18.540Z,99.90
2019-03-10T00:36:48.540Z,99.90
2019-03-10T00:40:02.726Z,99.90
2019-03-10T00:42:53.539Z,99.90
2019-03-10T00:46:08.755Z,99.90
2019-03-10T00:48:50.007Z,99.90
2019-03-10T00:51:45.421Z,99.90
2019-03-10T00:54:15.319Z,99.90
2019-03-10T00:56:45.298Z,99.90
2019-03-10T00:59:15.216Z,99.90
2019-03-10T01:01:45.079Z,99.90
2019-03-10T01:04:14.975Z,99.90
2019-03-10T01:06:45.294Z,99.90
2019-03-10T01:09:15.180Z,99.90
2019-03-10T01:11:45.298Z,99.90
2019-03-10T01:14:15.213Z,99.90
2019-03-10T01:16:45.803Z,99.90
2019-03-10T01:19:16.483Z,99.90
2019-03-10T01:21:48.811Z,99.90
2019-03-10T01:24:18.696Z,99.90
2019-03-10T01:26:48.580Z,99.90
2019-03-10T01:29:18.544Z,99.90
2019-03-10T01:32:28.907Z,99.90
2019-03-10T01:35:08.139Z,99.90
2019-03-10T01:37:38.046Z,99.90
2019-03-10T01:40:08.259Z,99.90
2019-03-10T01:42:38.176Z,99.90
2019-03-10T01:45:09.487Z,99.90
2019-03-10T01:47:39.443Z,99.90
2019-03-10T01:50:11.751Z,99.90
2019-03-10T01:52:41.627Z,99.90
2019-03-10T01:55:12.104Z,99.90
2019-03-10T01:57:42.011Z,99.90
2019-03-10T02:00:14.416Z,99.90
2019-03-10T02:02:44.273Z,99.90
2019-03-10T02:05:14.168Z,99.90
2019-03-10T02:07:44.187Z,99.90
2019-03-10T02:10:14.164Z,99.90
2019-03-10T02:12:44.035Z,99.90
2019-03-10T02:15:15.702Z,99.90
2019-03-10T02:17:45.774Z,99.90
2019-03-10T02:20:17.623Z,99.90
2019-03-10T02:22:47.670Z,99.90
2019-03-10T02:25:17.578Z,99.90
2019-03-10T02:27:47.499Z,99.90
2019-03-10T02:30:19.336Z,99.90
2019-03-10T02:32:49.242Z,99.90
2019-03-10T02:35:19.108Z,99.90
2019-03-10T02:37:49.000Z,99.90
2019-03-10T02:40:18.892Z,99.90
2019-03-10T02:42:48.794Z,99.90
2019-03-10T02:45:18.717Z,99.90
2019-03-10T02:47:48.904Z,99.90
2019-03-10T02:50:18.795Z,99.90
2019-03-10T02:52:48.745Z,99.90
2019-03-10T02:55:18.657Z,99.90
2019-03-10T02:57:48.547Z,99.90
2019-03-10T03:00:18.562Z,99.90
2019-03-10T03:02:48.454Z,99.90
2019-03-10T03:05:18.446Z,99.90
2019-03-10T03:07:48.427Z,99.90
2019-03-10T03:10:18.322Z,99.90
2019-03-10T03:12:48.316Z,99.90
2019-03-10T03:15:18.305Z,99.90
2019-03-10T03:17:48.167Z,99.90
2019-03-10T03:20:18.034Z,99.90
2019-03-10T03:22:48.003Z,99.90
2019-03-10T03:25:17.898Z,99.90
2019-03-10T03:27:47.817Z,99.90
2019-03-10T03:30:19.781Z,99.90
2019-03-10T03:32:49.771Z,99.90
2019-03-10T03:35:44.960Z,99.90
2019-03-10T03:38:14.891Z,99.90
2019-03-10T03:40:46.811Z,99.90
2019-03-10T03:43:35.625Z,99.90
2019-03-10T03:46:05.745Z,99.90
2019-03-10T03:48:35.627Z,99.90
2019-03-10T03:51:05.542Z,99.90
2019-03-10T03:53:35.388Z,99.90
2019-03-10T03:56:05.289Z,99.90
2019-03-10T03:58:35.238Z,99.90
2019-03-10T04:01:13.192Z,99.90
2019-03-10T04:03:43.055Z,99.90
2019-03-10T04:06:12.995Z,99.90
2019-03-10T04:08:42.918Z,99.90
2019-03-10T04:11:12.846Z,99.90
2019-03-10T04:13:42.820Z,99.90
2019-03-10T04:16:12.725Z,99.90
2019-03-10T04:18:42.598Z,99.90
2019-03-10T04:21:12.485Z,99.90
2019-03-10T04:23:42.452Z,99.90
2019-03-10T04:26:12.319Z,99.90
2019-03-10T04:28:42.208Z,99.90
2019-03-10T04:31:12.198Z,99.90
2019-03-10T04:33:42.203Z,99.90
2019-03-10T04:36:12.095Z,99.90
2019-03-10T04:38:41.992Z,99.90
2019-03-10T04:41:11.879Z,99.90
2019-03-10T04:43:41.840Z,99.90
2019-03-10T04:46:12.040Z,99.90
2019-03-10T04:48:41.976Z,99.90
2019-03-10T04:51:12.278Z,99.90
2019-03-10T04:53:42.158Z,99.90
2019-03-10T04:56:29.083Z,99.90
2019-03-10T04:58:58.977Z,99.90
2019-03-10T05:01:28.891Z,99.90
2019-03-10T05:03:58.777Z,99.90
2019-03-10T05:06:28.648Z,99.90
2019-03-10T05:08:58.555Z,99.90
2019-03-10T05:11:28.528Z,99.90
2019-03-10T05:13:58.406Z,99.90
2019-03-10T05:16:28.280Z,99.90
2019-03-10T05:18:58.160Z,99.90
2019-03-10T05:21:28.144Z,99.90
2019-03-10T05:23:59.972Z,99.90
2019-03-10T05:26:29.880Z,99.90
2019-03-10T05:28:59.863Z,99.90
2019-03-10T05:31:29.767Z,99.90
2019-03-10T05:33:59.829Z,99.90
2019-03-10T05:36:29.712Z,99.90
2019-03-10T05:38:59.626Z,99.90
2019-03-10T05:41:29.541Z,99.90
2019-03-10T05:43:59.466Z,99.90
2019-03-10T05:46:29.480Z,99.90
2019-03-10T05:48:59.515Z,99.90
2019-03-10T05:51:29.482Z,99.90
2019-03-10T05:53:59.763Z,99.90
2019-03-10T05:56:29.795Z,99.90
2019-03-10T05:58:59.782Z,99.90
2019-03-10T06:01:29.830Z,99.90
2019-03-10T06:04:01.405Z,99.90
2019-03-10T06:06:31.364Z,99.90
2019-03-10T06:09:01.294Z,99.90
2019-03-10T06:11:31.204Z,99.90
2019-03-10T06:14:01.172Z,99.90
2019-03-10T06:16:31.068Z,99.90
2019-03-10T06:19:01.107Z,99.90
2019-03-10T06:21:31.023Z,99.90
2019-03-10T06:24:00.969Z,99.90
2019-03-10T06:26:30.936Z,99.90
2019-03-10T06:29:00.867Z,99.90
2019-03-10T06:31:30.939Z,99.90
2019-03-10T06:34:00.939Z,99.90
2019-03-10T06:36:30.929Z,99.90
2019-03-10T06:39:00.793Z,99.90
2019-03-10T06:41:30.752Z,99.90
2019-03-10T06:44:00.809Z,99.90
2019-03-10T06:46:30.708Z,99.90
2019-03-10T06:49:00.622Z,99.90
2019-03-10T06:51:30.609Z,99.90
2019-03-10T06:54:00.655Z,99.90
2019-03-10T06:56:30.638Z,99.90
2019-03-10T06:59:00.499Z,99.90
2019-03-10T07:01:30.519Z,99.90
2019-03-10T07:04:00.463Z,99.90
2019-03-10T07:06:30.511Z,99.90
2019-03-10T07:09:00.757Z,99.90
2019-03-10T07:11:30.716Z,99.90
2019-03-10T07:14:00.708Z,99.90
2019-03-10T07:16:31.195Z,99.90
2019-03-10T07:19:01.111Z,99.90
2019-03-10T07:21:30.999Z,99.90
2019-03-10T07:24:00.911Z,99.90
2019-03-10T07:26:30.856Z,99.90
2019-03-10T07:29:23.763Z,99.90
2019-03-10T07:32:09.064Z,99.90
2019-03-10T07:35:01.082Z,99.90
2019-03-10T07:37:46.311Z,99.90
2019-03-10T07:40:29.710Z,99.90
2019-03-10T07:43:21.287Z,99.90
2019-03-10T07:46:14.442Z,99.90
2019-03-10T07:49:40.560Z,99.90
2019-03-10T07:52:28.679Z,99.90
2019-03-10T07:55:20.692Z,99.90
2019-03-10T07:58:21.915Z,99.90
2019-03-10T08:01:10.623Z,99.90
2019-03-10T08:04:05.496Z,99.90
2019-03-10T08:07:00.112Z,99.90
2019-03-10T08:10:10.836Z,99.90
2019-03-10T08:13:08.881Z,99.90
2019-03-10T08:15:56.402Z,99.90
2019-03-10T08:18:35.439Z,99.90
2019-03-10T08:21:42.964Z,99.90
2019-03-10T08:24:22.710Z,99.90
2019-03-10T08:27:21.007Z,99.90
2019-03-10T08:30:21.955Z,99.90
2019-03-10T08:33:01.889Z,99.90
2019-03-10T08:35:43.203Z,99.90
2019-03-10T08:38:34.856Z,99.90
2019-03-10T08:41:22.416Z,99.90
2019-03-10T08:44:17.283Z,99.90
2019-03-10T08:46:56.775Z,99.90
2019-03-10T08:49:48.459Z,99.90
2019-03-10T08:52:40.171Z,99.90
2019-03-10T08:55:17.189Z,99.90
2019-03-10T08:58:06.010Z,99.90
2019-03-10T09:01:04.470Z,99.90
2019-03-10T09:03:50.567Z,99.90
2019-03-10T09:06:38.156Z,99.90
2019-03-10T09:09:15.383Z,99.90
2019-03-10T09:11:54.793Z,99.90
2019-03-10T09:14:42.716Z,99.90
2019-03-10T09:17:31.631Z,99.90
2019-03-10T09:20:23.184Z,99.90
2019-03-10T09:23:10.567Z,99.90
2019-03-10T09:26:17.858Z,99.90
2019-03-10T09:29:22.464Z,99.90
2019-03-10T09:32:09.500Z,99.90
2019-03-10T09:35:01.572Z,99.90
2019-03-10T09:37:49.266Z,99.90
2019-03-10T09:40:44.194Z,99.90
2019-03-10T09:43:39.392Z,99.90
2019-03-10T09:46:16.522Z,99.90
2019-03-10T09:48:56.711Z,99.90
2019-03-10T09:51:45.571Z,99.90
2019-03-10T09:54:33.610Z,99.90
2019-03-10T09:57:40.673Z,99.90
2019-03-10T10:00:20.137Z,99.90
2019-03-10T10:02:59.880Z,99.90
2019-03-10T10:05:37.282Z,99.90
2019-03-10T10:08:24.265Z,99.90
2019-03-10T10:11:15.152Z,99.90
2019-03-10T10:14:02.816Z,99.90
2019-03-10T10:16:44.312Z,99.90
2019-03-10T10:19:31.915Z,99.90
2019-03-10T10:22:36.063Z,99.90
2019-03-10T10:25:27.015Z,99.90
2019-03-10T10:28:11.887Z,99.90
2019-03-10T10:31:04.679Z,99.90
2019-03-10T10:33:52.520Z,99.90
2019-03-10T10:36:56.809Z,99.90
2019-03-10T10:39:45.307Z,99.90
2019-03-10T10:42:40.160Z,99.90
2019-03-10T10:45:32.127Z,99.90
2019-03-10T10:48:35.958Z,99.90
2019-03-10T10:51:20.327Z,99.90
2019-03-10T10:54:09.097Z,99.90
2019-03-10T10:56:56.546Z,99.90
2019-03-10T10:59:48.108Z,99.90
2019-03-10T11:02:43.012Z,99.90
2019-03-10T11:05:44.334Z,99.90
2019-03-10T11:08:39.756Z,99.90
2019-03-10T11:11:34.348Z,99.90
2019-03-10T11:14:21.947Z,99.90
2019-03-10T11:17:10.712Z,99.90
2019-03-10T11:19:59.482Z,99.90
2019-03-10T11:22:57.332Z,99.90
2019-03-10T11:25:32.032Z,99.90
2019-03-10T11:28:23.971Z,99.90
2019-03-10T11:31:19.162Z,99.90
2019-03-10T11:34:26.114Z,99.90
2019-03-10T11:37:26.404Z,99.90
2019-03-10T11:40:33.568Z,99.90
2019-03-10T11:43:22.865Z,99.90
2019-03-10T11:46:02.267Z,99.90
2019-03-10T11:48:38.806Z,99.90
2019-03-10T11:51:35.075Z,99.90
2019-03-10T11:54:32.884Z,99.90
2019-03-10T11:57:20.425Z,99.60
2019-03-10T11:59:58.022Z,95.60
2019-03-10T12:02:38.380Z,97.60
2019-03-10T12:05:45.577Z,97.70
2019-03-10T12:10:54.328Z,97.30
2019-03-10T12:13:24.263Z,99.90
2019-03-10T12:15:54.161Z,99.90
2019-03-10T12:18:24.073Z,99.90
2019-03-10T12:20:54.009Z,99.90
2019-03-10T12:23:23.883Z,99.90
2019-03-10T12:25:53.928Z,99.90
2019-03-10T12:28:23.838Z,99.90
2019-03-10T12:30:53.762Z,99.90
2019-03-10T12:33:23.791Z,99.90
2019-03-10T12:35:53.701Z,99.90
2019-03-10T12:38:23.694Z,99.90
2019-03-10T12:40:53.630Z,99.90
2019-03-10T12:43:23.528Z,99.90
2019-03-10T12:45:53.557Z,99.90
2019-03-10T12:48:23.496Z,99.90
2019-03-10T12:50:53.539Z,99.90
2019-03-10T12:53:23.416Z,99.90
2019-03-10T12:55:53.392Z,99.90
2019-03-10T12:58:23.371Z,99.90
2019-03-10T13:00:53.349Z,99.90
2019-03-10T13:03:23.268Z,99.90
2019-03-10T13:05:53.189Z,99.90
2019-03-10T13:08:23.314Z,99.90
2019-03-10T13:10:53.239Z,99.90
2019-03-10T13:13:23.307Z,99.90
2019-03-10T13:15:53.345Z,99.90
2019-03-10T13:18:23.391Z,99.90
2019-03-10T13:20:53.355Z,99.90
2019-03-10T13:23:23.367Z,99.90
2019-03-10T13:25:53.423Z,99.90
2019-03-10T13:28:23.378Z,99.90
2019-03-10T13:30:53.430Z,99.90
2019-03-10T13:33:23.338Z,99.90
2019-03-10T13:35:53.328Z,99.90
2019-03-10T13:38:23.736Z,99.90
2019-03-10T13:40:53.820Z,99.90
2019-03-10T13:43:23.687Z,99.90
2019-03-10T13:45:53.633Z,99.90
2019-03-10T13:48:23.805Z,99.90
2019-03-10T13:50:53.889Z,99.90
2019-03-10T13:53:23.910Z,99.90
2019-03-10T13:55:53.956Z,99.90
2019-03-10T13:58:23.940Z,99.90
2019-03-10T14:00:54.072Z,99.90
2019-03-10T14:03:24.059Z,99.90
2019-03-10T14:05:54.008Z,99.90
2019-03-10T14:08:24.043Z,99.90
2019-03-10T14:10:53.959Z,99.90
2019-03-10T14:13:23.871Z,99.90
2019-03-10T14:15:53.803Z,99.90
2019-03-10T14:18:23.727Z,99.90
2019-03-10T14:20:53.808Z,99.90
2019-03-10T14:23:23.807Z,99.90
2019-03-10T14:25:53.727Z,99.90
2019-03-10T14:28:23.595Z,98.70
2019-03-10T14:30:53.599Z,99.90
2019-03-10T14:33:23.652Z,99.90
2019-03-10T14:35:53.699Z,99.90
2019-03-10T14:38:23.667Z,99.90
2019-03-10T14:40:53.799Z,99.90
2019-03-10T14:43:23.837Z,99.90
2019-03-10T14:45:53.753Z,99.90
2019-03-10T14:48:23.670Z,99.90
2019-03-10T14:50:53.582Z,99.90
2019-03-10T14:53:23.513Z,99.90
2019-03-10T14:55:53.484Z,99.90
2019-03-10T14:58:23.542Z,99.90
2019-03-10T15:00:53.592Z,99.90
2019-03-10T15:03:23.505Z,99.90
2019-03-10T15:05:53.520Z,99.90
2019-03-10T15:08:23.590Z,99.90
2019-03-10T15:10:53.520Z,99.90
2019-03-10T15:13:23.895Z,99.90
2019-03-10T15:15:53.818Z,99.90
2019-03-10T15:18:23.752Z,99.90
2019-03-10T15:20:53.687Z,99.90
2019-03-10T15:23:23.597Z,99.90
2019-03-10T15:25:53.552Z,99.90
2019-03-10T15:28:23.606Z,99.10
2019-03-10T15:30:53.584Z,96.60
2019-03-10T15:33:23.555Z,97.50
2019-03-10T15:35:53.551Z,97.80
2019-03-10T15:38:23.462Z,97.60
2019-03-10T15:40:53.489Z,96.90
2019-03-10T15:43:23.428Z,99.10
2019-03-10T15:45:53.448Z,98.80
2019-03-10T15:48:23.670Z,99.90
2019-03-10T15:50:53.592Z,99.90
2019-03-10T15:53:23.682Z,99.90
2019-03-10T15:55:53.780Z,99.90
2019-03-10T15:58:23.859Z,99.90
2019-03-10T16:00:54.309Z,99.90
2019-03-10T16:03:24.249Z,99.50
2019-03-10T16:05:54.185Z,99.90
2019-03-10T16:08:24.195Z,99.90
2019-03-10T16:10:54.113Z,98.50
2019-03-10T16:13:24.046Z,97.80
2019-03-10T16:15:54.008Z,98.20
2019-03-10T16:18:23.954Z,97.50
2019-03-10T16:20:53.979Z,98.80
2019-03-10T16:23:23.925Z,98.30
2019-03-10T16:25:54.029Z,99.30
2019-03-10T16:28:24.030Z,99.90
2019-03-10T16:30:54.008Z,99.90
2019-03-10T16:33:25.415Z,99.90
2019-03-10T16:35:55.611Z,99.90
2019-03-10T16:38:25.677Z,99.90
2019-03-10T16:40:55.596Z,99.90
2019-03-10T16:43:25.568Z,99.90
2019-03-10T16:45:55.479Z,99.90
2019-03-10T16:48:25.390Z,99.90
2019-03-10T16:50:55.331Z,99.90
2019-03-10T16:53:25.599Z,99.90
2019-03-10T16:56:02.805Z,99.90
2019-03-10T16:58:27.822Z,99.90
2019-03-10T17:00:57.731Z,99.90
2019-03-10T17:03:27.688Z,99.90
2019-03-10T17:05:58.217Z,99.90
2019-03-10T17:08:28.481Z,99.90
2019-03-10T17:10:58.495Z,99.90
2019-03-10T17:13:28.458Z,99.90
2019-03-10T17:15:58.435Z,99.90
2019-03-10T17:18:28.359Z,99.90
2019-03-10T17:21:17.429Z,99.90
2019-03-10T17:23:47.315Z,99.90
2019-03-10T17:26:17.291Z,99.90
2019-03-10T17:28:47.259Z,99.90
2019-03-10T17:31:17.151Z,99.90
2019-03-10T17:33:47.444Z,99.90
2019-03-10T17:36:17.419Z,99.90
2019-03-10T17:38:47.558Z,99.90
2019-03-10T17:41:17.535Z,99.90
2019-03-10T17:43:47.508Z,99.90
2019-03-10T17:46:17.434Z,99.90
2019-03-10T17:48:47.343Z,99.90
2019-03-10T17:51:17.428Z,99.90
2019-03-10T17:53:47.398Z,99.90
2019-03-10T17:56:17.487Z,99.90
2019-03-10T17:58:47.482Z,99.90
2019-03-10T18:01:17.563Z,99.90
2019-03-10T18:03:47.517Z,99.90
2019-03-10T18:06:17.563Z,99.90
2019-03-10T18:08:47.537Z,99.90
2019-03-10T18:11:17.482Z,99.90
2019-03-10T18:13:47.421Z,99.90
2019-03-10T18:16:17.468Z,99.90
2019-03-10T18:18:49.183Z,99.90
2019-03-10T18:21:19.092Z,99.90
2019-03-10T18:23:49.492Z,99.90
2019-03-10T18:28:58.680Z,99.90
2019-03-10T18:31:28.685Z,99.90
2019-03-10T18:33:58.731Z,99.90
2019-03-10T18:36:29.027Z,99.90
2019-03-10T18:38:59.239Z,99.90
2019-03-10T18:41:29.196Z,99.90
2019-03-10T18:43:59.238Z,99.90
2019-03-10T18:46:29.607Z,99.90
2019-03-10T18:48:59.797Z,99.90
2019-03-10T18:51:30.219Z,99.90
2019-03-10T18:54:01.295Z,99.90
2019-03-10T18:56:31.413Z,99.90
2019-03-10T18:59:01.435Z,99.90
2019-03-10T19:01:31.343Z,99.90
2019-03-10T19:04:01.259Z,99.90
2019-03-10T19:06:32.296Z,99.90
2019-03-10T19:09:02.215Z,99.90
2019-03-10T19:11:32.331Z,99.90
2019-03-10T19:14:02.781Z,99.90
2019-03-10T19:16:32.673Z,99.90
2019-03-10T19:19:02.754Z,99.90
2019-03-10T19:21:32.747Z,99.90
2019-03-10T19:24:02.897Z,99.90
2019-03-10T19:26:33.029Z,99.90
2019-03-10T19:29:02.903Z,99.90
2019-03-10T19:31:33.132Z,99.90
2019-03-10T19:34:03.164Z,99.90
2019-03-10T19:36:33.124Z,99.90
2019-03-10T19:39:03.036Z,99.90
2019-03-10T19:41:32.985Z,99.90
2019-03-10T19:44:03.046Z,99.90
2019-03-10T19:46:32.984Z,99.90
2019-03-10T19:49:02.956Z,99.90
2019-03-10T19:51:32.944Z,99.90
2019-03-10T19:54:02.881Z,99.90
2019-03-10T19:56:33.332Z,99.90
2019-03-10T19:59:04.081Z,99.90
2019-03-10T20:01:45.804Z,99.90
2019-03-10T20:04:16.116Z,99.90
2019-03-10T20:06:46.569Z,99.90
2019-03-10T20:09:16.889Z,99.90
2019-03-10T20:11:48.223Z,99.90
2019-03-10T20:14:18.267Z,99.90
2019-03-10T20:16:48.312Z,99.90
2019-03-10T20:19:18.432Z,99.90
2019-03-10T20:21:48.359Z,99.90
2019-03-10T20:24:18.281Z,99.90
2019-03-10T20:26:48.295Z,99.90
2019-03-10T20:29:18.300Z,99.90
2019-03-10T20:31:48.274Z,99.90
2019-03-10T20:34:18.526Z,99.90
2019-03-10T20:36:48.934Z,99.90
2019-03-10T20:39:19.371Z,99.90
2019-03-10T20:41:49.651Z,99.90
2019-03-10T20:44:19.614Z,99.90
2019-03-10T20:46:49.729Z,99.90
2019-03-10T20:49:20.103Z,99.90
2019-03-10T20:51:50.651Z,99.90
2019-03-10T20:54:20.651Z,99.90
2019-03-10T20:56:50.881Z,99.90
2019-03-10T20:59:20.785Z,99.90
2019-03-10T21:01:51.519Z,99.90
2019-03-10T21:04:22.837Z,99.90
2019-03-10T21:06:53.459Z,99.90
2019-03-10T21:09:23.700Z,99.90
2019-03-10T21:11:53.945Z,99.90
2019-03-10T21:14:24.348Z,99.90
2019-03-10T21:16:54.567Z,99.90
2019-03-10T21:19:25.012Z,99.90
2019-03-10T21:21:55.220Z,99.90
2019-03-10T21:24:25.927Z,99.90
2019-03-10T21:26:56.626Z,99.90
2019-03-10T21:29:26.582Z,99.90
2019-03-10T21:31:56.447Z,99.90
2019-03-10T21:34:26.467Z,99.90
2019-03-10T21:36:56.651Z,99.90
2019-03-10T21:39:34.232Z,99.90
2019-03-10T21:41:58.761Z,99.90
2019-03-10T21:44:28.991Z,99.90
2019-03-10T21:47:00.022Z,99.90
2019-03-10T21:49:30.436Z,99.90
2019-03-10T21:52:00.705Z,99.90
2019-03-10T21:54:30.843Z,99.90
2019-03-10T21:57:01.317Z,99.90
2019-03-10T21:59:31.705Z,99.90
2019-03-10T22:02:01.864Z,99.90
2019-03-10T22:04:32.087Z,99.90
2019-03-10T22:07:02.224Z,99.90
2019-03-10T22:09:32.631Z,99.90
2019-03-10T22:12:02.853Z,99.90
2019-03-10T22:14:33.192Z,99.90
2019-03-10T22:17:03.707Z,99.90
2019-03-10T22:19:35.061Z,99.90
2019-03-10T22:22:05.383Z,99.90
2019-03-10T22:24:35.709Z,99.90
2019-03-10T22:27:06.043Z,99.90
2019-03-10T22:29:36.251Z,99.90
2019-03-10T22:32:06.576Z,99.90
2019-03-10T22:34:36.776Z,99.90
2019-03-10T22:37:06.972Z,99.90
2019-03-10T22:39:37.274Z,99.90
2019-03-10T22:42:07.500Z,99.90
2019-03-10T22:44:37.688Z,99.90
2019-03-10T22:47:07.805Z,99.90
2019-03-10T22:49:38.166Z,99.90
2019-03-10T22:52:08.440Z,99.90
2019-03-10T22:54:38.606Z,99.90
2019-03-10T22:57:08.908Z,99.90
2019-03-10T22:59:39.324Z,99.90
2019-03-10T23:02:09.750Z,99.90
2019-03-10T23:04:40.084Z,99.90
2019-03-10T23:07:10.561Z,99.90
2019-03-10T23:09:40.858Z,99.90
2019-03-10T23:12:10.976Z,99.90
2019-03-10T23:14:41.226Z,99.90
2019-03-10T23:17:11.594Z,99.90
2019-03-10T23:19:42.106Z,99.90
2019-03-10T23:22:12.345Z,99.90
2019-03-10T23:24:42.500Z,99.90
2019-03-10T23:27:12.596Z,99.90
2019-03-10T23:29:42.603Z,99.90
2019-03-10T23:32:13.087Z,99.90
2019-03-10T23:34:43.352Z,99.90
2019-03-10T23:37:13.688Z,99.90
2019-03-10T23:39:43.835Z,99.90
2019-03-10T23:42:14.225Z,99.90
2019-03-10T23:44:44.422Z,99.90
2019-03-10T23:47:15.077Z,99.90
2019-03-10T23:49:45.307Z,99.90
2019-03-10T23:52:15.520Z,99.90
2019-03-10T23:54:45.978Z,99.90
2019-03-10T23:57:16.170Z,99.90
2019-03-10T23:59:46.402Z,99.90
